Time,TemperatureF,DewpointF,PressureIn,WindDirection,WindDirectionDegrees,WindSpeedMPH,WindSpeedGustMPH,Humidity,HourlyPrecipIn,Conditions,Clouds,dailyrainin,SolarRadiationWatts/m^2,SoftwareType,DateUTC
2014-01-12 00:11:00,26.0,17.0,-100.00,North,-999,0.0,2.0,69,0.00,,,0.00,0.000000,,2014-01-12 07:11:00,
2014-01-12 00:21:00,26.0,17.0,-100.00,North,-999,0.0,2.0,69,0.00,,,0.00,0.000000,,2014-01-12 07:21:00,
2014-01-12 00:32:00,26.0,17.0,-100.00,North,-999,0.0,2.0,69,0.00,,,0.00,0.000000,,2014-01-12 07:32:00,
2014-01-12 00:42:00,26.0,17.0,-100.00,North,-999,0.0,2.0,69,0.00,,,0.00,0.000000,,2014-01-12 07:42:00,
2014-01-12 01:11:00,25.0,18.0,-100.00,SW,217,4.0,5.0,75,0.00,,,0.00,0.000000,,2014-01-12 08:11:00,
2014-01-12 01:22:00,25.0,18.0,-100.00,SW,217,4.0,5.0,75,0.00,,,0.00,0.000000,,2014-01-12 08:22:00,
2014-01-12 01:32:00,25.0,18.0,-100.00,SW,217,4.0,5.0,75,0.00,,,0.00,0.000000,,2014-01-12 08:32:00,
2014-01-12 01:42:00,25.0,18.0,-100.00,SW,217,4.0,5.0,75,0.00,,,0.00,0.000000,,2014-01-12 08:42:00,
2014-01-12 02:11:00,29.0,16.0,-100.00,WSW,241,11.0,17.0,57,0.00,,,0.00,0.000000,,2014-01-12 09:11:00,
2014-01-12 02:21:00,29.0,16.0,-100.00,WSW,241,11.0,17.0,57,0.00,,,0.00,0.000000,,2014-01-12 09:21:00,
2014-01-12 02:33:00,29.0,16.0,-100.00,WSW,241,11.0,17.0,57,0.00,,,0.00,0.000000,,2014-01-12 09:33:00,
2014-01-12 02:43:00,29.0,16.0,-100.00,WSW,241,11.0,17.0,57,0.00,,,0.00,0.000000,,2014-01-12 09:43:00,
2014-01-12 03:12:00,29.0,15.0,-100.00,WSW,251,8.0,14.0,56,0.00,,,0.00,0.000000,,2014-01-12 10:12:00,
2014-01-12 03:23:00,29.0,15.0,-100.00,WSW,251,8.0,14.0,56,0.00,,,0.00,0.000000,,2014-01-12 10:23:00,
2014-01-12 03:33:00,29.0,15.0,-100.00,WSW,251,8.0,14.0,56,0.00,,,0.00,0.000000,,2014-01-12 10:33:00,
2014-01-12 03:42:00,29.0,15.0,-100.00,WSW,251,8.0,14.0,56,0.00,,,0.00,0.000000,,2014-01-12 10:42:00,
2014-01-12 04:12:00,31.0,15.0,-100.00,SW,220,11.0,20.0,52,0.00,,,0.00,0.000000,,2014-01-12 11:12:00,
2014-01-12 04:22:00,31.0,15.0,-100.00,SW,220,11.0,20.0,52,0.00,,,0.00,0.000000,,2014-01-12 11:22:00,
2014-01-12 04:32:00,31.0,15.0,-100.00,SW,220,11.0,20.0,52,0.00,,,0.00,0.000000,,2014-01-12 11:32:00,
2014-01-12 04:42:00,31.0,15.0,-100.00,SW,220,11.0,20.0,52,0.00,,,0.00,0.000000,,2014-01-12 11:42:00,
2014-01-12 05:11:00,30.0,15.0,-100.00,West,259,7.0,17.0,52,0.00,,,0.00,0.000000,,2014-01-12 12:11:00,
2014-01-12 05:21:00,30.0,15.0,-100.00,West,259,7.0,17.0,52,0.00,,,0.00,0.000000,,2014-01-12 12:21:00,
2014-01-12 05:32:00,30.0,15.0,-100.00,West,259,7.0,17.0,52,0.00,,,0.00,0.000000,,2014-01-12 12:32:00,
2014-01-12 05:42:00,30.0,15.0,-100.00,West,259,7.0,17.0,52,0.00,,,0.00,0.000000,,2014-01-12 12:42:00,
2014-01-12 06:11:00,29.0,14.0,-100.00,WSW,257,15.0,21.0,54,0.00,,,0.00,0.000000,,2014-01-12 13:11:00,
2014-01-12 06:21:00,29.0,14.0,-100.00,WSW,257,15.0,21.0,54,0.00,,,0.00,0.000000,,2014-01-12 13:21:00,
2014-01-12 06:32:00,29.0,14.0,-100.00,WSW,257,15.0,21.0,54,0.00,,,0.00,0.000000,,2014-01-12 13:32:00,
2014-01-12 06:42:00,29.0,14.0,-100.00,WSW,257,15.0,21.0,54,0.00,,,0.00,0.000000,,2014-01-12 13:42:00,
2014-01-12 07:11:00,31.0,15.0,-100.00,West,268,25.0,41.0,51,0.00,,,0.00,0.000000,,2014-01-12 14:11:00,
2014-01-12 07:21:00,31.0,15.0,-100.00,West,268,25.0,41.0,51,0.00,,,0.00,0.000000,,2014-01-12 14:21:00,
2014-01-12 07:32:00,31.0,15.0,-100.00,West,268,25.0,41.0,51,0.00,,,0.00,0.000000,,2014-01-12 14:32:00,
2014-01-12 07:42:00,31.0,15.0,-100.00,West,268,25.0,41.0,51,0.00,,,0.00,0.000000,,2014-01-12 14:42:00,
2014-01-12 08:11:00,30.0,13.0,-100.00,West,259,22.0,38.0,49,0.00,,,0.00,3.000000,,2014-01-12 15:11:00,
2014-01-12 08:21:00,30.0,13.0,-100.00,West,259,22.0,38.0,49,0.00,,,0.00,3.000000,,2014-01-12 15:21:00,
2014-01-12 08:33:00,30.0,13.0,-100.00,West,259,22.0,38.0,49,0.00,,,0.00,3.000000,,2014-01-12 15:33:00,
2014-01-12 08:44:00,30.0,13.0,-100.00,West,259,22.0,38.0,49,0.00,,,0.00,3.000000,,2014-01-12 15:44:00,
2014-01-12 09:13:00,28.0,16.0,-100.00,WSW,252,34.0,46.0,59,0.00,,,0.00,39.000000,,2014-01-12 16:13:00,
2014-01-12 09:23:00,28.0,16.0,-100.00,WSW,252,34.0,46.0,59,0.00,,,0.00,39.000000,,2014-01-12 16:23:00,
2014-01-12 09:33:00,28.0,16.0,-100.00,WSW,252,34.0,46.0,59,0.00,,,0.00,39.000000,,2014-01-12 16:33:00,
2014-01-12 09:43:00,28.0,16.0,-100.00,WSW,252,34.0,46.0,59,0.00,,,0.00,39.000000,,2014-01-12 16:43:00,
2014-01-12 10:42:00,21.0,19.0,-100.00,NW,305,20.0,53.0,92,0.00,,,0.00,101.000000,,2014-01-12 17:42:00,
2014-01-12 11:22:00,20.0,18.0,-100.00,West,281,21.0,38.0,90,0.00,,,0.00,158.000000,,2014-01-12 18:22:00,
2014-01-12 11:32:00,20.0,18.0,-100.00,West,281,21.0,38.0,90,0.00,,,0.00,158.000000,,2014-01-12 18:32:00,
2014-01-12 11:42:00,20.0,18.0,-100.00,West,281,21.0,38.0,90,0.00,,,0.00,158.000000,,2014-01-12 18:42:00,
2014-01-12 12:21:00,22.0,19.0,-100.00,WSW,249,15.0,35.0,88,0.00,,,0.00,250.000000,,2014-01-12 19:21:00,
2014-01-12 12:32:00,22.0,19.0,-100.00,WSW,249,15.0,35.0,88,0.00,,,0.00,250.000000,,2014-01-12 19:32:00,
2014-01-12 12:43:00,22.0,19.0,-100.00,WSW,249,15.0,35.0,88,0.00,,,0.00,250.000000,,2014-01-12 19:43:00,
2014-01-12 13:22:00,21.0,16.0,-100.00,WNW,291,15.0,31.0,81,0.00,,,0.00,519.000000,,2014-01-12 20:22:00,
2014-01-12 13:32:00,21.0,16.0,-100.00,WNW,291,15.0,31.0,81,0.00,,,0.00,519.000000,,2014-01-12 20:32:00,
2014-01-12 13:42:00,21.0,16.0,-100.00,WNW,291,15.0,31.0,81,0.00,,,0.00,519.000000,,2014-01-12 20:42:00,
2014-01-12 14:22:00,19.0,15.0,-100.00,WNW,300,12.0,34.0,85,0.00,,,0.00,310.000000,,2014-01-12 21:22:00,
2014-01-12 14:33:00,19.0,15.0,-100.00,WNW,300,12.0,34.0,85,0.00,,,0.00,310.000000,,2014-01-12 21:33:00,
2014-01-12 14:43:00,19.0,15.0,-100.00,WNW,300,12.0,34.0,85,0.00,,,0.00,310.000000,,2014-01-12 21:43:00,
2014-01-12 15:12:00,18.0,14.0,-100.00,WNW,295,13.0,28.0,83,0.00,,,0.00,425.000000,,2014-01-12 22:12:00,
2014-01-12 15:23:00,18.0,14.0,-100.00,WNW,295,13.0,28.0,83,0.00,,,0.00,425.000000,,2014-01-12 22:23:00,
2014-01-12 15:33:00,18.0,14.0,-100.00,WNW,295,13.0,28.0,83,0.00,,,0.00,425.000000,,2014-01-12 22:33:00,
2014-01-12 15:42:00,18.0,14.0,-100.00,WNW,295,13.0,28.0,83,0.00,,,0.00,425.000000,,2014-01-12 22:42:00,
2014-01-12 16:12:00,20.0,10.0,-100.00,WNW,291,14.0,30.0,64,0.00,,,0.00,310.000000,,2014-01-12 23:12:00,
2014-01-12 16:21:00,20.0,10.0,-100.00,WNW,291,14.0,30.0,64,0.00,,,0.00,310.000000,,2014-01-12 23:21:00,
2014-01-12 16:33:00,20.0,10.0,-100.00,WNW,291,14.0,30.0,64,0.00,,,0.00,310.000000,,2014-01-12 23:33:00,
2014-01-12 16:42:00,20.0,10.0,-100.00,WNW,291,14.0,30.0,64,0.00,,,0.00,310.000000,,2014-01-12 23:42:00,
2014-01-12 17:11:00,16.0,5.0,-100.00,West,279,17.0,32.0,62,0.00,,,0.00,243.000000,,2014-01-13 00:11:00,
2014-01-12 17:22:00,16.0,5.0,-100.00,West,279,17.0,32.0,62,0.00,,,0.00,243.000000,,2014-01-13 00:22:00,
2014-01-12 17:32:00,16.0,5.0,-100.00,West,279,17.0,32.0,62,0.00,,,0.00,243.000000,,2014-01-13 00:32:00,
2014-01-12 17:42:00,16.0,5.0,-100.00,West,279,17.0,32.0,62,0.00,,,0.00,243.000000,,2014-01-13 00:42:00,
2014-01-12 18:11:00,14.0,1.0,-100.00,WNW,298,7.0,31.0,56,0.00,,,0.00,3.000000,,2014-01-13 01:11:00,
2014-01-12 18:21:00,14.0,1.0,-100.00,WNW,298,7.0,31.0,56,0.00,,,0.00,3.000000,,2014-01-13 01:21:00,
2014-01-12 18:32:00,14.0,1.0,-100.00,WNW,298,7.0,31.0,56,0.00,,,0.00,3.000000,,2014-01-13 01:32:00,
2014-01-12 18:42:00,14.0,1.0,-100.00,WNW,298,7.0,31.0,56,0.00,,,0.00,3.000000,,2014-01-13 01:42:00,
2014-01-12 19:11:00,14.0,2.0,-100.00,WNW,288,13.0,25.0,57,0.00,,,0.00,0.000000,,2014-01-13 02:11:00,
2014-01-12 19:21:00,14.0,2.0,-100.00,WNW,288,13.0,25.0,57,0.00,,,0.00,0.000000,,2014-01-13 02:21:00,
2014-01-12 19:32:00,14.0,2.0,-100.00,WNW,288,13.0,25.0,57,0.00,,,0.00,0.000000,,2014-01-13 02:32:00,
2014-01-12 19:42:00,14.0,2.0,-100.00,WNW,288,13.0,25.0,57,0.00,,,0.00,0.000000,,2014-01-13 02:42:00,
2014-01-12 20:11:00,13.0,9.0,-100.00,WNW,292,10.0,29.0,85,0.00,,,0.00,0.000000,,2014-01-13 03:11:00,
2014-01-12 20:22:00,13.0,9.0,-100.00,WNW,292,10.0,29.0,85,0.00,,,0.00,0.000000,,2014-01-13 03:22:00,
2014-01-12 20:33:00,13.0,9.0,-100.00,WNW,292,10.0,29.0,85,0.00,,,0.00,0.000000,,2014-01-13 03:33:00,
2014-01-12 20:43:00,13.0,9.0,-100.00,WNW,292,10.0,29.0,85,0.00,,,0.00,0.000000,,2014-01-13 03:43:00,
2014-01-12 21:13:00,13.0,8.0,-100.00,West,270,15.0,26.0,79,0.00,,,0.00,0.000000,,2014-01-13 04:13:00,
2014-01-12 21:23:00,13.0,8.0,-100.00,West,270,15.0,26.0,79,0.00,,,0.00,0.000000,,2014-01-13 04:23:00,
2014-01-12 21:33:00,13.0,8.0,-100.00,West,270,15.0,26.0,79,0.00,,,0.00,0.000000,,2014-01-13 04:33:00,
2014-01-12 21:43:00,13.0,8.0,-100.00,West,270,15.0,26.0,79,0.00,,,0.00,0.000000,,2014-01-13 04:43:00,
2014-01-12 22:12:00,12.0,3.0,-100.00,WNW,300,10.0,27.0,66,0.00,,,0.00,0.000000,,2014-01-13 05:12:00,
2014-01-12 22:22:00,12.0,3.0,-100.00,WNW,300,10.0,27.0,66,0.00,,,0.00,0.000000,,2014-01-13 05:22:00,
2014-01-12 22:32:00,12.0,3.0,-100.00,WNW,300,10.0,27.0,66,0.00,,,0.00,0.000000,,2014-01-13 05:32:00,
2014-01-12 22:43:00,12.0,3.0,-100.00,WNW,300,10.0,27.0,66,0.00,,,0.00,0.000000,,2014-01-13 05:43:00,
2014-01-12 23:12:00,11.0,3.0,-100.00,WNW,282,15.0,25.0,69,0.00,,,0.00,0.000000,,2014-01-13 06:12:00,
2014-01-12 23:22:00,11.0,3.0,-100.00,WNW,282,15.0,25.0,69,0.00,,,0.00,0.000000,,2014-01-13 06:22:00,
2014-01-12 23:32:00,11.0,3.0,-100.00,WNW,282,15.0,25.0,69,0.00,,,0.00,0.000000,,2014-01-13 06:32:00,
2014-01-12 23:43:00,11.0,3.0,-100.00,WNW,282,15.0,25.0,69,0.00,,,0.00,0.000000,,2014-01-13 06:43:00,